sensor_id;sensor_type;location;lat;lon;timestamp;P1;durP1;ratioP1;P2;durP2;ratioP2
4144;SDS011;2086;51.050;6.982;2022-07-23T00:00:24;13.97;;;9.17;;
4144;SDS011;2086;51.050;6.982;2022-07-23T00:02:49;0.40;;;0.30;;
4144;SDS011;2086;51.050;6.982;2022-07-23T00:05:15;0.40;;;0.40;;
4144;SDS011;2086;51.050;6.982;2022-07-23T00:07:40;0.40;;;0.30;;
4144;SDS011;2086;51.050;6.982;2022-07-23T00:10:05;0.40;;;0.40;;
4144;SDS011;2086;51.050;6.982;2022-07-23T00:12:31;0.40;;;0.30;;
4144;SDS011;2086;51.050;6.982;2022-07-23T00:14:56;0.40;;;0.30;;
4144;SDS011;2086;51.050;6.982;2022-07-23T00:17:21;0.67;;;0.67;;
4144;SDS011;2086;51.050;6.982;2022-07-23T00:19:47;0.40;;;0.30;;
4144;SDS011;2086;51.050;6.982;2022-07-23T00:22:12;0.40;;;0.30;;
4144;SDS011;2086;51.050;6.982;2022-07-23T00:24:37;0.40;;;0.40;;
4144;SDS011;2086;51.050;6.982;2022-07-23T00:27:02;0.40;;;0.30;;
4144;SDS011;2086;51.050;6.982;2022-07-23T00:29:28;0.40;;;0.30;;
4144;SDS011;2086;51.050;6.982;2022-07-23T00:31:54;0.40;;;0.30;;
4144;SDS011;2086;51.050;6.982;2022-07-23T00:34:19;0.40;;;0.30;;
4144;SDS011;2086;51.050;6.982;2022-07-23T00:36:44;0.40;;;0.30;;
4144;SDS011;2086;51.050;6.982;2022-07-23T00:39:09;0.40;;;0.30;;
4144;SDS011;2086;51.050;6.982;2022-07-23T00:41:35;0.40;;;0.30;;
4144;SDS011;2086;51.050;6.982;2022-07-23T00:46:50;0.40;;;0.30;;
4144;SDS011;2086;51.050;6.982;2022-07-23T00:49:18;0.40;;;0.30;;
4144;SDS011;2086;51.050;6.982;2022-07-23T00:51:43;0.40;;;0.30;;
4144;SDS011;2086;51.050;6.982;2022-07-23T00:54:08;0.40;;;0.30;;
4144;SDS011;2086;51.050;6.982;2022-07-23T00:56:34;0.40;;;0.30;;
4144;SDS011;2086;51.050;6.982;2022-07-23T00:58:59;0.40;;;0.30;;
4144;SDS011;2086;51.050;6.982;2022-07-23T01:01:25;0.40;;;0.30;;
4144;SDS011;2086;51.050;6.982;2022-07-23T01:03:50;0.40;;;0.30;;
4144;SDS011;2086;51.050;6.982;2022-07-23T01:06:15;0.40;;;0.30;;
4144;SDS011;2086;51.050;6.982;2022-07-23T01:08:40;0.40;;;0.30;;
4144;SDS011;2086;51.050;6.982;2022-07-23T01:11:06;0.40;;;0.30;;
4144;SDS011;2086;51.050;6.982;2022-07-23T01:13:32;0.40;;;0.30;;
4144;SDS011;2086;51.050;6.982;2022-07-23T01:15:57;0.40;;;0.30;;
4144;SDS011;2086;51.050;6.982;2022-07-23T01:18:22;0.40;;;0.30;;
4144;SDS011;2086;51.050;6.982;2022-07-23T01:20:47;0.40;;;0.30;;
4144;SDS011;2086;51.050;6.982;2022-07-23T01:23:13;0.40;;;0.30;;
4144;SDS011;2086;51.050;6.982;2022-07-23T01:25:46;0.40;;;0.30;;
4144;SDS011;2086;51.050;6.982;2022-07-23T01:28:12;0.40;;;0.30;;
4144;SDS011;2086;51.050;6.982;2022-07-23T01:30:37;0.50;;;0.50;;
4144;SDS011;2086;51.050;6.982;2022-07-23T01:33:02;0.40;;;0.30;;
4144;SDS011;2086;51.050;6.982;2022-07-23T01:35:28;0.40;;;0.30;;
4144;SDS011;2086;51.050;6.982;2022-07-23T01:37:53;0.40;;;0.30;;
4144;SDS011;2086;51.050;6.982;2022-07-23T01:40:18;0.40;;;0.30;;
4144;SDS011;2086;51.050;6.982;2022-07-23T01:42:43;0.40;;;0.30;;
4144;SDS011;2086;51.050;6.982;2022-07-23T01:45:09;0.40;;;0.30;;
4144;SDS011;2086;51.050;6.982;2022-07-23T01:47:34;0.40;;;0.30;;
4144;SDS011;2086;51.050;6.982;2022-07-23T01:49:59;0.40;;;0.30;;
4144;SDS011;2086;51.050;6.982;2022-07-23T01:52:25;0.40;;;0.30;;
4144;SDS011;2086;51.050;6.982;2022-07-23T01:54:50;0.40;;;0.30;;
4144;SDS011;2086;51.050;6.982;2022-07-23T01:57:15;0.40;;;0.30;;
4144;SDS011;2086;51.050;6.982;2022-07-23T01:59:40;0.40;;;0.30;;
4144;SDS011;2086;51.050;6.982;2022-07-23T02:02:06;0.40;;;0.30;;
4144;SDS011;2086;51.050;6.982;2022-07-23T02:04:31;0.40;;;0.30;;
4144;SDS011;2086;51.050;6.982;2022-07-23T02:07:00;0.40;;;0.30;;
4144;SDS011;2086;51.050;6.982;2022-07-23T02:09:26;0.40;;;0.30;;
4144;SDS011;2086;51.050;6.982;2022-07-23T02:11:51;0.40;;;0.30;;
4144;SDS011;2086;51.050;6.982;2022-07-23T02:14:16;0.40;;;0.30;;
4144;SDS011;2086;51.050;6.982;2022-07-23T02:16:41;0.40;;;0.30;;
4144;SDS011;2086;51.050;6.982;2022-07-23T02:19:06;0.40;;;0.30;;
4144;SDS011;2086;51.050;6.982;2022-07-23T02:21:32;0.57;;;0.57;;
4144;SDS011;2086;51.050;6.982;2022-07-23T02:23:57;0.40;;;0.30;;
4144;SDS011;2086;51.050;6.982;2022-07-23T02:26:22;0.40;;;0.30;;
4144;SDS011;2086;51.050;6.982;2022-07-23T02:28:47;0.40;;;0.30;;
4144;SDS011;2086;51.050;6.982;2022-07-23T02:31:13;0.40;;;0.30;;
4144;SDS011;2086;51.050;6.982;2022-07-23T02:33:38;0.40;;;0.30;;
4144;SDS011;2086;51.050;6.982;2022-07-23T02:36:03;0.40;;;0.30;;
4144;SDS011;2086;51.050;6.982;2022-07-23T02:38:28;0.40;;;0.30;;
4144;SDS011;2086;51.050;6.982;2022-07-23T02:40:54;0.40;;;0.30;;
4144;SDS011;2086;51.050;6.982;2022-07-23T02:43:19;0.40;;;0.30;;
4144;SDS011;2086;51.050;6.982;2022-07-23T02:45:44;0.40;;;0.30;;
4144;SDS011;2086;51.050;6.982;2022-07-23T02:48:09;0.40;;;0.30;;
4144;SDS011;2086;51.050;6.982;2022-07-23T02:50:37;0.40;;;0.30;;
4144;SDS011;2086;51.050;6.982;2022-07-23T02:53:02;0.40;;;0.30;;
4144;SDS011;2086;51.050;6.982;2022-07-23T02:55:28;0.40;;;0.30;;
4144;SDS011;2086;51.050;6.982;2022-07-23T02:57:53;0.40;;;0.30;;
4144;SDS011;2086;51.050;6.982;2022-07-23T03:00:18;0.40;;;0.40;;
4144;SDS011;2086;51.050;6.982;2022-07-23T03:02:43;0.40;;;0.30;;
4144;SDS011;2086;51.050;6.982;2022-07-23T03:05:09;0.40;;;0.30;;
4144;SDS011;2086;51.050;6.982;2022-07-23T03:07:34;0.40;;;0.30;;
4144;SDS011;2086;51.050;6.982;2022-07-23T03:09:59;0.40;;;0.30;;
4144;SDS011;2086;51.050;6.982;2022-07-23T03:12:25;0.40;;;0.40;;
4144;SDS011;2086;51.050;6.982;2022-07-23T03:14:50;0.40;;;0.30;;
4144;SDS011;2086;51.050;6.982;2022-07-23T03:17:15;0.40;;;0.30;;
4144;SDS011;2086;51.050;6.982;2022-07-23T03:19:41;0.40;;;0.30;;
4144;SDS011;2086;51.050;6.982;2022-07-23T03:22:06;0.40;;;0.30;;
4144;SDS011;2086;51.050;6.982;2022-07-23T03:24:31;0.40;;;0.30;;
4144;SDS011;2086;51.050;6.982;2022-07-23T03:27:15;0.40;;;0.30;;
4144;SDS011;2086;51.050;6.982;2022-07-23T03:29:40;0.40;;;0.30;;
4144;SDS011;2086;51.050;6.982;2022-07-23T03:32:05;0.40;;;0.30;;
4144;SDS011;2086;51.050;6.982;2022-07-23T03:34:31;0.40;;;0.30;;
4144;SDS011;2086;51.050;6.982;2022-07-23T03:36:56;0.40;;;0.30;;
4144;SDS011;2086;51.050;6.982;2022-07-23T03:39:21;0.40;;;0.30;;
4144;SDS011;2086;51.050;6.982;2022-07-23T03:41:46;0.40;;;0.30;;
4144;SDS011;2086;51.050;6.982;2022-07-23T03:44:12;0.40;;;0.30;;
4144;SDS011;2086;51.050;6.982;2022-07-23T03:46:37;0.40;;;0.30;;
4144;SDS011;2086;51.050;6.982;2022-07-23T03:49:02;0.40;;;0.30;;
4144;SDS011;2086;51.050;6.982;2022-07-23T03:51:27;0.40;;;0.30;;
4144;SDS011;2086;51.050;6.982;2022-07-23T03:53:52;0.40;;;0.30;;
4144;SDS011;2086;51.050;6.982;2022-07-23T03:56:19;0.40;;;0.30;;
4144;SDS011;2086;51.050;6.982;2022-07-23T03:58:44;0.43;;;0.40;;
4144;SDS011;2086;51.050;6.982;2022-07-23T04:01:10;0.40;;;0.40;;
4144;SDS011;2086;51.050;6.982;2022-07-23T04:03:35;0.40;;;0.30;;
4144;SDS011;2086;51.050;6.982;2022-07-23T04:06:01;0.40;;;0.30;;
4144;SDS011;2086;51.050;6.982;2022-07-23T04:08:26;0.40;;;0.40;;
4144;SDS011;2086;51.050;6.982;2022-07-23T04:10:51;0.40;;;0.30;;
4144;SDS011;2086;51.050;6.982;2022-07-23T04:13:16;0.40;;;0.30;;
4144;SDS011;2086;51.050;6.982;2022-07-23T04:15:42;0.40;;;0.30;;
4144;SDS011;2086;51.050;6.982;2022-07-23T04:18:07;0.40;;;0.30;;
4144;SDS011;2086;51.050;6.982;2022-07-23T04:20:33;0.40;;;0.30;;
4144;SDS011;2086;51.050;6.982;2022-07-23T04:22:58;0.40;;;0.30;;
4144;SDS011;2086;51.050;6.982;2022-07-23T04:25:23;0.40;;;0.30;;
4144;SDS011;2086;51.050;6.982;2022-07-23T04:27:48;0.40;;;0.30;;
4144;SDS011;2086;51.050;6.982;2022-07-23T04:30:14;0.40;;;0.30;;
4144;SDS011;2086;51.050;6.982;2022-07-23T04:32:39;0.40;;;0.30;;
4144;SDS011;2086;51.050;6.982;2022-07-23T04:35:04;0.40;;;0.30;;
4144;SDS011;2086;51.050;6.982;2022-07-23T04:37:29;0.40;;;0.30;;
4144;SDS011;2086;51.050;6.982;2022-07-23T04:39:55;0.40;;;0.30;;
4144;SDS011;2086;51.050;6.982;2022-07-23T04:42:20;0.40;;;0.30;;
4144;SDS011;2086;51.050;6.982;2022-07-23T04:44:45;0.40;;;0.30;;
4144;SDS011;2086;51.050;6.982;2022-07-23T04:47:10;0.40;;;0.30;;
4144;SDS011;2086;51.050;6.982;2022-07-23T04:49:36;0.40;;;0.30;;
4144;SDS011;2086;51.050;6.982;2022-07-23T04:52:01;0.40;;;0.30;;
4144;SDS011;2086;51.050;6.982;2022-07-23T04:54:26;0.40;;;0.30;;
4144;SDS011;2086;51.050;6.982;2022-07-23T04:56:52;0.40;;;0.30;;
4144;SDS011;2086;51.050;6.982;2022-07-23T04:59:17;0.40;;;0.30;;
4144;SDS011;2086;51.050;6.982;2022-07-23T05:01:42;0.40;;;0.30;;
4144;SDS011;2086;51.050;6.982;2022-07-23T05:04:08;0.40;;;0.30;;
4144;SDS011;2086;51.050;6.982;2022-07-23T05:06:33;0.40;;;0.30;;
4144;SDS011;2086;51.050;6.982;2022-07-23T05:08:58;0.40;;;0.30;;
4144;SDS011;2086;51.050;6.982;2022-07-23T05:11:23;0.40;;;0.30;;
4144;SDS011;2086;51.050;6.982;2022-07-23T05:13:49;0.40;;;0.30;;
4144;SDS011;2086;51.050;6.982;2022-07-23T05:16:14;0.40;;;0.30;;
4144;SDS011;2086;51.050;6.982;2022-07-23T05:18:39;0.40;;;0.30;;
4144;SDS011;2086;51.050;6.982;2022-07-23T05:21:04;0.40;;;0.40;;
4144;SDS011;2086;51.050;6.982;2022-07-23T05:23:30;0.40;;;0.30;;
4144;SDS011;2086;51.050;6.982;2022-07-23T05:25:55;0.40;;;0.30;;
4144;SDS011;2086;51.050;6.982;2022-07-23T05:28:20;0.40;;;0.30;;
4144;SDS011;2086;51.050;6.982;2022-07-23T05:30:45;0.40;;;0.30;;
4144;SDS011;2086;51.050;6.982;2022-07-23T05:33:11;0.40;;;0.30;;
4144;SDS011;2086;51.050;6.982;2022-07-23T05:35:36;0.40;;;0.40;;
4144;SDS011;2086;51.050;6.982;2022-07-23T05:38:01;0.40;;;0.30;;
4144;SDS011;2086;51.050;6.982;2022-07-23T05:40:26;0.40;;;0.30;;
4144;SDS011;2086;51.050;6.982;2022-07-23T05:42:52;0.40;;;0.30;;
4144;SDS011;2086;51.050;6.982;2022-07-23T05:45:17;0.40;;;0.40;;
4144;SDS011;2086;51.050;6.982;2022-07-23T05:47:44;0.40;;;0.30;;
4144;SDS011;2086;51.050;6.982;2022-07-23T05:50:09;0.40;;;0.30;;
4144;SDS011;2086;51.050;6.982;2022-07-23T05:52:35;0.40;;;0.30;;
4144;SDS011;2086;51.050;6.982;2022-07-23T05:55:00;0.40;;;0.30;;
4144;SDS011;2086;51.050;6.982;2022-07-23T05:57:25;0.40;;;0.30;;
4144;SDS011;2086;51.050;6.982;2022-07-23T05:59:50;0.40;;;0.30;;
4144;SDS011;2086;51.050;6.982;2022-07-23T06:02:16;0.40;;;0.30;;
4144;SDS011;2086;51.050;6.982;2022-07-23T06:04:41;1.50;;;1.50;;
4144;SDS011;2086;51.050;6.982;2022-07-23T06:07:07;0.40;;;0.30;;
4144;SDS011;2086;51.050;6.982;2022-07-23T06:09:32;0.40;;;0.30;;
4144;SDS011;2086;51.050;6.982;2022-07-23T06:11:57;0.40;;;0.30;;
4144;SDS011;2086;51.050;6.982;2022-07-23T06:14:22;0.40;;;0.30;;
4144;SDS011;2086;51.050;6.982;2022-07-23T06:16:48;0.40;;;0.30;;
4144;SDS011;2086;51.050;6.982;2022-07-23T06:19:13;0.40;;;0.30;;
4144;SDS011;2086;51.050;6.982;2022-07-23T06:21:38;0.40;;;0.30;;
4144;SDS011;2086;51.050;6.982;2022-07-23T06:24:03;0.40;;;0.30;;
4144;SDS011;2086;51.050;6.982;2022-07-23T06:26:29;0.40;;;0.30;;
4144;SDS011;2086;51.050;6.982;2022-07-23T06:28:54;0.40;;;0.30;;
4144;SDS011;2086;51.050;6.982;2022-07-23T06:31:19;0.40;;;0.30;;
4144;SDS011;2086;51.050;6.982;2022-07-23T06:33:44;0.40;;;0.30;;
4144;SDS011;2086;51.050;6.982;2022-07-23T06:36:10;5.10;;;4.70;;
4144;SDS011;2086;51.050;6.982;2022-07-23T06:38:35;0.40;;;0.30;;
4144;SDS011;2086;51.050;6.982;2022-07-23T06:41:00;0.40;;;0.30;;
4144;SDS011;2086;51.050;6.982;2022-07-23T06:43:25;0.40;;;0.30;;
4144;SDS011;2086;51.050;6.982;2022-07-23T06:45:51;0.40;;;0.30;;
4144;SDS011;2086;51.050;6.982;2022-07-23T06:48:16;0.40;;;0.30;;
4144;SDS011;2086;51.050;6.982;2022-07-23T06:50:41;0.40;;;0.30;;
4144;SDS011;2086;51.050;6.982;2022-07-23T06:53:06;0.40;;;0.30;;
4144;SDS011;2086;51.050;6.982;2022-07-23T06:55:31;0.40;;;0.30;;
4144;SDS011;2086;51.050;6.982;2022-07-23T06:57:57;0.40;;;0.30;;
4144;SDS011;2086;51.050;6.982;2022-07-23T07:00:22;0.40;;;0.30;;
4144;SDS011;2086;51.050;6.982;2022-07-23T07:02:47;0.40;;;0.40;;
4144;SDS011;2086;51.050;6.982;2022-07-23T07:05:13;0.40;;;0.30;;
4144;SDS011;2086;51.050;6.982;2022-07-23T07:07:38;0.40;;;0.30;;
4144;SDS011;2086;51.050;6.982;2022-07-23T07:10:03;0.40;;;0.30;;
4144;SDS011;2086;51.050;6.982;2022-07-23T07:12:29;0.90;;;0.90;;
4144;SDS011;2086;51.050;6.982;2022-07-23T07:14:54;0.40;;;0.30;;
4144;SDS011;2086;51.050;6.982;2022-07-23T07:17:19;0.40;;;0.30;;
4144;SDS011;2086;51.050;6.982;2022-07-23T07:19:45;0.40;;;0.40;;
4144;SDS011;2086;51.050;6.982;2022-07-23T07:22:10;0.40;;;0.30;;
4144;SDS011;2086;51.050;6.982;2022-07-23T07:24:35;0.40;;;0.30;;
4144;SDS011;2086;51.050;6.982;2022-07-23T07:27:00;0.40;;;0.30;;
4144;SDS011;2086;51.050;6.982;2022-07-23T07:29:26;0.40;;;0.30;;
4144;SDS011;2086;51.050;6.982;2022-07-23T07:31:52;0.40;;;0.30;;
4144;SDS011;2086;51.050;6.982;2022-07-23T07:34:17;0.40;;;0.30;;
4144;SDS011;2086;51.050;6.982;2022-07-23T07:36:42;0.40;;;0.30;;
4144;SDS011;2086;51.050;6.982;2022-07-23T07:39:08;0.67;;;0.67;;
4144;SDS011;2086;51.050;6.982;2022-07-23T07:41:35;0.40;;;0.30;;
4144;SDS011;2086;51.050;6.982;2022-07-23T07:44:00;0.40;;;0.30;;
4144;SDS011;2086;51.050;6.982;2022-07-23T07:46:26;0.40;;;0.37;;
4144;SDS011;2086;51.050;6.982;2022-07-23T07:48:52;0.40;;;0.40;;
4144;SDS011;2086;51.050;6.982;2022-07-23T07:51:17;0.50;;;0.50;;
4144;SDS011;2086;51.050;6.982;2022-07-23T07:53:43;0.57;;;0.57;;
4144;SDS011;2086;51.050;6.982;2022-07-23T07:56:08;0.40;;;0.30;;
4144;SDS011;2086;51.050;6.982;2022-07-23T07:58:33;0.40;;;0.30;;
4144;SDS011;2086;51.050;6.982;2022-07-23T08:00:58;0.40;;;0.40;;
4144;SDS011;2086;51.050;6.982;2022-07-23T08:03:25;0.40;;;0.37;;
4144;SDS011;2086;51.050;6.982;2022-07-23T08:05:50;0.40;;;0.30;;
4144;SDS011;2086;51.050;6.982;2022-07-23T08:08:16;0.40;;;0.30;;
4144;SDS011;2086;51.050;6.982;2022-07-23T08:10:41;0.40;;;0.40;;
4144;SDS011;2086;51.050;6.982;2022-07-23T08:13:06;0.80;;;0.80;;
4144;SDS011;2086;51.050;6.982;2022-07-23T08:15:32;0.40;;;0.30;;
4144;SDS011;2086;51.050;6.982;2022-07-23T08:17:57;0.40;;;0.30;;
4144;SDS011;2086;51.050;6.982;2022-07-23T08:20:23;0.40;;;0.40;;
4144;SDS011;2086;51.050;6.982;2022-07-23T08:22:52;0.40;;;0.40;;
4144;SDS011;2086;51.050;6.982;2022-07-23T08:25:22;0.50;;;0.50;;
4144;SDS011;2086;51.050;6.982;2022-07-23T08:27:47;0.40;;;0.30;;
4144;SDS011;2086;51.050;6.982;2022-07-23T08:30:19;0.40;;;0.40;;
4144;SDS011;2086;51.050;6.982;2022-07-23T08:33:00;0.60;;;0.60;;
4144;SDS011;2086;51.050;6.982;2022-07-23T08:35:27;0.40;;;0.30;;
4144;SDS011;2086;51.050;6.982;2022-07-23T08:37:52;0.40;;;0.30;;
4144;SDS011;2086;51.050;6.982;2022-07-23T08:40:20;0.63;;;0.63;;
4144;SDS011;2086;51.050;6.982;2022-07-23T08:42:49;0.40;;;0.30;;
4144;SDS011;2086;51.050;6.982;2022-07-23T08:45:22;0.40;;;0.30;;
4144;SDS011;2086;51.050;6.982;2022-07-23T08:47:49;1.80;;;0.83;;
4144;SDS011;2086;51.050;6.982;2022-07-23T08:50:20;0.67;;;0.30;;
4144;SDS011;2086;51.050;6.982;2022-07-23T08:53:12;0.40;;;0.30;;
4144;SDS011;2086;51.050;6.982;2022-07-23T08:55:41;0.40;;;0.30;;
4144;SDS011;2086;51.050;6.982;2022-07-23T08:58:08;0.40;;;0.30;;
4144;SDS011;2086;51.050;6.982;2022-07-23T09:00:33;0.40;;;0.30;;
4144;SDS011;2086;51.050;6.982;2022-07-23T09:02:58;0.40;;;0.30;;
4144;SDS011;2086;51.050;6.982;2022-07-23T09:05:24;0.40;;;0.20;;
4144;SDS011;2086;51.050;6.982;2022-07-23T09:10:47;0.40;;;0.30;;
4144;SDS011;2086;51.050;6.982;2022-07-23T09:15:54;0.40;;;0.20;;
4144;SDS011;2086;51.050;6.982;2022-07-23T09:23:45;0.40;;;0.20;;
4144;SDS011;2086;51.050;6.982;2022-07-23T09:31:18;0.40;;;0.30;;
4144;SDS011;2086;51.050;6.982;2022-07-23T09:33:46;0.40;;;0.30;;
4144;SDS011;2086;51.050;6.982;2022-07-23T09:36:11;0.40;;;0.30;;
4144;SDS011;2086;51.050;6.982;2022-07-23T09:38:47;0.30;;;0.20;;
4144;SDS011;2086;51.050;6.982;2022-07-23T09:43:57;0.40;;;0.30;;
4144;SDS011;2086;51.050;6.982;2022-07-23T09:46:27;0.30;;;0.20;;
4144;SDS011;2086;51.050;6.982;2022-07-23T09:48:53;0.30;;;0.30;;
4144;SDS011;2086;51.050;6.982;2022-07-23T09:51:18;0.30;;;0.20;;
4144;SDS011;2086;51.050;6.982;2022-07-23T09:53:48;0.30;;;0.20;;
4144;SDS011;2086;51.050;6.982;2022-07-23T09:56:22;0.30;;;0.30;;
4144;SDS011;2086;51.050;6.982;2022-07-23T09:58:49;0.30;;;0.20;;
4144;SDS011;2086;51.050;6.982;2022-07-23T10:01:19;1.07;;;0.97;;
4144;SDS011;2086;51.050;6.982;2022-07-23T10:03:48;0.43;;;0.40;;
4144;SDS011;2086;51.050;6.982;2022-07-23T10:06:14;0.40;;;0.33;;
4144;SDS011;2086;51.050;6.982;2022-07-23T10:08:40;0.70;;;0.70;;
4144;SDS011;2086;51.050;6.982;2022-07-23T10:11:06;0.30;;;0.20;;
4144;SDS011;2086;51.050;6.982;2022-07-23T10:13:32;0.30;;;0.20;;
4144;SDS011;2086;51.050;6.982;2022-07-23T10:16:23;0.30;;;0.23;;
4144;SDS011;2086;51.050;6.982;2022-07-23T10:18:49;0.30;;;0.20;;
4144;SDS011;2086;51.050;6.982;2022-07-23T10:24:10;0.30;;;0.20;;
4144;SDS011;2086;51.050;6.982;2022-07-23T10:34:19;0.30;;;0.20;;
4144;SDS011;2086;51.050;6.982;2022-07-23T10:36:51;0.30;;;0.30;;
4144;SDS011;2086;51.050;6.982;2022-07-23T10:39:19;3.80;;;3.13;;
4144;SDS011;2086;51.050;6.982;2022-07-23T10:41:47;0.30;;;0.20;;
4144;SDS011;2086;51.050;6.982;2022-07-23T10:46:54;0.30;;;0.20;;
4144;SDS011;2086;51.050;6.982;2022-07-23T10:49:38;6.13;;;2.73;;
4144;SDS011;2086;51.050;6.982;2022-07-23T10:54:42;5.70;;;5.40;;
4144;SDS011;2086;51.050;6.982;2022-07-23T10:57:08;5.60;;;5.30;;
4144;SDS011;2086;51.050;6.982;2022-07-23T11:02:23;5.47;;;5.00;;
4144;SDS011;2086;51.050;6.982;2022-07-23T11:04:49;4.90;;;4.50;;
4144;SDS011;2086;51.050;6.982;2022-07-23T11:07:15;6.78;;;6.28;;
4144;SDS011;2086;51.050;6.982;2022-07-23T11:09:41;4.55;;;4.25;;
4144;SDS011;2086;51.050;6.982;2022-07-23T11:12:53;5.72;;;4.85;;
4144;SDS011;2086;51.050;6.982;2022-07-23T11:15:14;4.68;;;4.47;;
4144;SDS011;2086;51.050;6.982;2022-07-23T11:17:40;4.28;;;3.92;;
4144;SDS011;2086;51.050;6.982;2022-07-23T11:20:23;4.00;;;3.67;;
4144;SDS011;2086;51.050;6.982;2022-07-23T11:22:49;5.35;;;3.42;;
4144;SDS011;2086;51.050;6.982;2022-07-23T11:27:46;3.17;;;3.08;;
4144;SDS011;2086;51.050;6.982;2022-07-23T11:32:52;3.28;;;3.08;;
4144;SDS011;2086;51.050;6.982;2022-07-23T11:35:20;3.38;;;3.28;;
4144;SDS011;2086;51.050;6.982;2022-07-23T11:37:46;4.20;;;4.00;;
4144;SDS011;2086;51.050;6.982;2022-07-23T11:40:12;3.00;;;2.90;;
4144;SDS011;2086;51.050;6.982;2022-07-23T11:42:38;3.38;;;3.17;;
4144;SDS011;2086;51.050;6.982;2022-07-23T11:45:07;3.38;;;3.17;;
4144;SDS011;2086;51.050;6.982;2022-07-23T11:47:33;3.00;;;2.90;;
4144;SDS011;2086;51.050;6.982;2022-07-23T11:49:59;3.03;;;2.92;;
4144;SDS011;2086;51.050;6.982;2022-07-23T11:52:25;3.20;;;3.00;;
4144;SDS011;2086;51.050;6.982;2022-07-23T11:54:58;2.42;;;2.33;;
4144;SDS011;2086;51.050;6.982;2022-07-23T11:57:25;2.70;;;2.55;;
4144;SDS011;2086;51.050;6.982;2022-07-23T11:59:51;2.72;;;2.53;;
4144;SDS011;2086;51.050;6.982;2022-07-23T12:02:19;2.28;;;2.17;;
4144;SDS011;2086;51.050;6.982;2022-07-23T12:04:45;2.50;;;2.40;;
4144;SDS011;2086;51.050;6.982;2022-07-23T12:09:54;3.42;;;3.13;;
4144;SDS011;2086;51.050;6.982;2022-07-23T12:12:20;3.00;;;2.80;;
4144;SDS011;2086;51.050;6.982;2022-07-23T12:14:49;3.28;;;3.08;;
4144;SDS011;2086;51.050;6.982;2022-07-23T12:17:14;2.22;;;2.08;;
4144;SDS011;2086;51.050;6.982;2022-07-23T12:19:40;2.13;;;2.08;;
4144;SDS011;2086;51.050;6.982;2022-07-23T12:22:05;2.15;;;1.95;;
4144;SDS011;2086;51.050;6.982;2022-07-23T12:24:30;2.28;;;1.95;;
4144;SDS011;2086;51.050;6.982;2022-07-23T12:27:11;1.40;;;1.40;;
4144;SDS011;2086;51.050;6.982;2022-07-23T12:29:36;1.45;;;1.45;;
4144;SDS011;2086;51.050;6.982;2022-07-23T12:32:02;1.48;;;1.48;;
4144;SDS011;2086;51.050;6.982;2022-07-23T12:34:27;2.33;;;2.13;;
4144;SDS011;2086;51.050;6.982;2022-07-23T12:36:52;2.65;;;2.45;;
4144;SDS011;2086;51.050;6.982;2022-07-23T12:39:33;2.70;;;2.60;;
4144;SDS011;2086;51.050;6.982;2022-07-23T12:41:58;2.13;;;1.40;;
4144;SDS011;2086;51.050;6.982;2022-07-23T12:44:24;2.00;;;1.90;;
4144;SDS011;2086;51.050;6.982;2022-07-23T12:46:50;1.85;;;1.75;;
4144;SDS011;2086;51.050;6.982;2022-07-23T12:49:25;1.45;;;1.35;;
4144;SDS011;2086;51.050;6.982;2022-07-23T12:51:50;1.40;;;1.40;;
4144;SDS011;2086;51.050;6.982;2022-07-23T12:54:15;2.38;;;2.28;;
4144;SDS011;2086;51.050;6.982;2022-07-23T12:56:44;1.50;;;1.48;;
4144;SDS011;2086;51.050;6.982;2022-07-23T12:59:10;1.65;;;1.33;;
4144;SDS011;2086;51.050;6.982;2022-07-23T13:01:37;1.77;;;1.67;;
4144;SDS011;2086;51.050;6.982;2022-07-23T13:04:04;1.17;;;1.17;;
4144;SDS011;2086;51.050;6.982;2022-07-23T13:06:41;1.50;;;1.50;;
4144;SDS011;2086;51.050;6.982;2022-07-23T13:09:08;1.27;;;1.10;;
4144;SDS011;2086;51.050;6.982;2022-07-23T13:11:33;1.50;;;1.40;;
4144;SDS011;2086;51.050;6.982;2022-07-23T13:13:59;1.60;;;1.50;;
4144;SDS011;2086;51.050;6.982;2022-07-23T13:16:25;2.40;;;2.30;;
4144;SDS011;2086;51.050;6.982;2022-07-23T13:18:51;1.33;;;1.27;;
4144;SDS011;2086;51.050;6.982;2022-07-23T13:21:16;2.10;;;1.50;;
4144;SDS011;2086;51.050;6.982;2022-07-23T13:23:41;1.25;;;1.25;;
4144;SDS011;2086;51.050;6.982;2022-07-23T13:26:07;1.58;;;1.48;;
4144;SDS011;2086;51.050;6.982;2022-07-23T13:28:32;0.82;;;0.82;;
4144;SDS011;2086;51.050;6.982;2022-07-23T13:30:57;1.08;;;1.08;;
4144;SDS011;2086;51.050;6.982;2022-07-23T13:33:23;1.27;;;1.27;;
4144;SDS011;2086;51.050;6.982;2022-07-23T13:35:49;0.80;;;0.80;;
4144;SDS011;2086;51.050;6.982;2022-07-23T13:38:14;1.35;;;1.25;;
4144;SDS011;2086;51.050;6.982;2022-07-23T13:40:41;0.93;;;0.93;;
4144;SDS011;2086;51.050;6.982;2022-07-23T13:43:07;2.70;;;1.25;;
4144;SDS011;2086;51.050;6.982;2022-07-23T13:45:33;0.98;;;0.98;;
4144;SDS011;2086;51.050;6.982;2022-07-23T13:47:59;1.10;;;1.10;;
4144;SDS011;2086;51.050;6.982;2022-07-23T13:50:24;1.00;;;1.00;;
4144;SDS011;2086;51.050;6.982;2022-07-23T13:52:49;0.95;;;0.95;;
4144;SDS011;2086;51.050;6.982;2022-07-23T13:55:15;1.00;;;0.90;;
4144;SDS011;2086;51.050;6.982;2022-07-23T13:57:40;1.45;;;1.35;;
4144;SDS011;2086;51.050;6.982;2022-07-23T14:00:06;1.25;;;1.15;;
4144;SDS011;2086;51.050;6.982;2022-07-23T14:02:32;1.17;;;0.87;;
4144;SDS011;2086;51.050;6.982;2022-07-23T14:04:58;1.70;;;1.27;;
4144;SDS011;2086;51.050;6.982;2022-07-23T14:07:23;3.80;;;1.27;;
4144;SDS011;2086;51.050;6.982;2022-07-23T14:09:48;4.10;;;1.20;;
4144;SDS011;2086;51.050;6.982;2022-07-23T14:12:14;1.40;;;1.30;;
4144;SDS011;2086;51.050;6.982;2022-07-23T14:14:39;1.83;;;1.73;;
4144;SDS011;2086;51.050;6.982;2022-07-23T14:17:05;1.10;;;1.00;;
4144;SDS011;2086;51.050;6.982;2022-07-23T14:19:30;1.93;;;1.10;;
4144;SDS011;2086;51.050;6.982;2022-07-23T14:21:55;0.80;;;0.80;;
4144;SDS011;2086;51.050;6.982;2022-07-23T14:24:21;1.57;;;1.20;;
4144;SDS011;2086;51.050;6.982;2022-07-23T14:26:46;1.17;;;1.17;;
4144;SDS011;2086;51.050;6.982;2022-07-23T14:29:11;1.13;;;1.00;;
4144;SDS011;2086;51.050;6.982;2022-07-23T14:31:36;0.90;;;0.90;;
4144;SDS011;2086;51.050;6.982;2022-07-23T14:34:02;1.00;;;1.00;;
4144;SDS011;2086;51.050;6.982;2022-07-23T14:36:27;1.10;;;1.10;;
4144;SDS011;2086;51.050;6.982;2022-07-23T14:38:52;1.43;;;1.33;;
4144;SDS011;2086;51.050;6.982;2022-07-23T14:41:18;1.10;;;1.00;;
4144;SDS011;2086;51.050;6.982;2022-07-23T14:43:43;1.40;;;1.30;;
4144;SDS011;2086;51.050;6.982;2022-07-23T14:46:08;1.17;;;1.07;;
4144;SDS011;2086;51.050;6.982;2022-07-23T14:48:34;1.27;;;1.17;;
4144;SDS011;2086;51.050;6.982;2022-07-23T14:50:59;1.10;;;1.10;;
4144;SDS011;2086;51.050;6.982;2022-07-23T14:53:25;1.20;;;1.10;;
4144;SDS011;2086;51.050;6.982;2022-07-23T14:55:50;1.00;;;0.97;;
4144;SDS011;2086;51.050;6.982;2022-07-23T14:58:15;1.77;;;1.07;;
4144;SDS011;2086;51.050;6.982;2022-07-23T15:00:40;1.50;;;1.40;;
4144;SDS011;2086;51.050;6.982;2022-07-23T15:03:06;1.60;;;1.50;;
4144;SDS011;2086;51.050;6.982;2022-07-23T15:05:31;1.37;;;1.30;;
4144;SDS011;2086;51.050;6.982;2022-07-23T15:07:56;2.20;;;0.80;;
4144;SDS011;2086;51.050;6.982;2022-07-23T15:10:22;1.43;;;1.10;;
4144;SDS011;2086;51.050;6.982;2022-07-23T15:12:47;0.93;;;0.93;;
4144;SDS011;2086;51.050;6.982;2022-07-23T15:15:12;1.30;;;1.20;;
4144;SDS011;2086;51.050;6.982;2022-07-23T15:17:38;1.30;;;1.20;;
4144;SDS011;2086;51.050;6.982;2022-07-23T15:20:03;1.40;;;1.30;;
4144;SDS011;2086;51.050;6.982;2022-07-23T15:22:29;1.30;;;1.20;;
4144;SDS011;2086;51.050;6.982;2022-07-23T15:24:54;1.37;;;1.37;;
4144;SDS011;2086;51.050;6.982;2022-07-23T15:27:19;4.47;;;1.70;;
4144;SDS011;2086;51.050;6.982;2022-07-23T15:29:44;1.10;;;1.10;;
4144;SDS011;2086;51.050;6.982;2022-07-23T15:32:10;0.80;;;0.80;;
4144;SDS011;2086;51.050;6.982;2022-07-23T15:34:36;5.80;;;1.70;;
4144;SDS011;2086;51.050;6.982;2022-07-23T15:37:01;0.93;;;0.93;;
4144;SDS011;2086;51.050;6.982;2022-07-23T15:39:27;1.53;;;1.23;;
4144;SDS011;2086;51.050;6.982;2022-07-23T15:41:52;1.13;;;1.10;;
4144;SDS011;2086;51.050;6.982;2022-07-23T15:44:17;1.00;;;1.00;;
4144;SDS011;2086;51.050;6.982;2022-07-23T15:46:43;1.60;;;1.50;;
4144;SDS011;2086;51.050;6.982;2022-07-23T15:49:08;1.40;;;1.30;;
4144;SDS011;2086;51.050;6.982;2022-07-23T15:51:33;3.70;;;1.30;;
4144;SDS011;2086;51.050;6.982;2022-07-23T15:53:58;1.60;;;1.50;;
4144;SDS011;2086;51.050;6.982;2022-07-23T15:56:24;1.30;;;1.30;;